»·PEaware :: N328TD KF70-KAVX

N328TD :: KF70-KAVX

FLIGHT INFORMATION

Flight Status: Arrived
Operator: Privately registered:
United States
More flights under this callsign
Pilot: Anonymous 15577 (15577)
Aircraft: CESSNA 172 SKYHAWK
(C172)
More flights by this aircraft type
Origin: KF70
Destination: KAVX Catalina
United States
More flights between these airports :: More routes between these airports
Route:
File this flight plan on PilotEdge
Remarks: VFR
Altitude:
(Current/Filed)
4,000ft
Speed:
(Current/Filed)
115kts
Departed: 13-Jun-17 12:40 PM
Arrived: 13-Jun-17 01:17 PM
Distance/Time
Traveled:
Not Available
Distance/Time
To Go:
Arrived

Flight Plot

Page will automatically refresh every two minutes.


Map Options




Map Legend


Flown Route
Filed Route
Departure Airport
Arrival Airport
Navaid (VOR, NDB)
Fix

Horizontal Profiles

Position Reports

Time Latitude Longitude Heading Altitude Ground
Speed
13-Jun-17 12:23 33.581550 -117.129134 102 1354ft 0kts
13-Jun-17 12:24 33.581550 -117.129134 102 1354ft 0kts
13-Jun-17 12:25 33.581550 -117.129134 102 1354ft 0kts
13-Jun-17 12:26 33.581550 -117.129134 102 1354ft 0kts
13-Jun-17 12:27 33.581550 -117.129134 102 1354ft 0kts
13-Jun-17 12:28 33.581550 -117.129134 102 1354ft 0kts
13-Jun-17 12:29 33.581550 -117.129134 102 1354ft 0kts
13-Jun-17 12:30 33.581550 -117.129134 102 1354ft 0kts
13-Jun-17 12:31 33.581550 -117.129134 102 1354ft 0kts
13-Jun-17 12:32 33.581550 -117.129134 102 1354ft 0kts
13-Jun-17 12:33 33.581550 -117.129134 102 1354ft 0kts
13-Jun-17 12:34 33.581550 -117.129134 102 1354ft 0kts
13-Jun-17 12:35 33.581074 -117.128223 196 1354ft 13kts
13-Jun-17 12:36 33.576258 -117.128752 192 1354ft 25kts
13-Jun-17 12:37 33.570211 -117.130336 191 1354ft 14kts
13-Jun-17 12:38 33.566313 -117.131178 102 1354ft 0kts
13-Jun-17 12:39 33.566313 -117.131179 102 1354ft 0kts
13-Jun-17 12:40 33.566313 -117.131179 102 1354ft 0kts
13-Jun-17 12:41 33.566313 -117.131179 102 1354ft 0kts
13-Jun-17 12:42 33.578166 -117.127395 12 1478ft 96kts
13-Jun-17 12:43 33.598811 -117.135075 269 2273ft 90kts
13-Jun-17 12:44 33.588604 -117.164915 234 2814ft 105kts
13-Jun-17 12:45 33.572946 -117.194509 245 3438ft 106kts
13-Jun-17 12:46 33.563562 -117.228213 256 3950ft 107kts
13-Jun-17 12:47 33.557194 -117.265370 259 4172ft 125kts
13-Jun-17 12:48 33.551252 -117.307758 260 4169ft 130kts
13-Jun-17 12:49 33.545654 -117.350554 261 4169ft 130kts
13-Jun-17 12:50 33.540163 -117.393154 261 4174ft 129kts
13-Jun-17 12:51 33.534681 -117.435767 261 4169ft 129kts
13-Jun-17 12:52 33.529201 -117.478323 261 4176ft 130kts
13-Jun-17 12:53 33.523640 -117.521353 261 4169ft 129kts
13-Jun-17 12:54 33.518031 -117.564656 261 4178ft 133kts
13-Jun-17 12:55 33.512472 -117.607456 261 4166ft 128kts
13-Jun-17 12:56 33.506962 -117.649795 261 4181ft 129kts
13-Jun-17 12:57 33.501512 -117.691768 260 4178ft 132kts
13-Jun-17 12:58 33.495887 -117.734666 260 4167ft 129kts
13-Jun-17 12:59 33.490275 -117.777391 260 4171ft 129kts
13-Jun-17 13:00 33.484665 -117.820041 260 4168ft 129kts
13-Jun-17 13:01 33.479202 -117.862332 261 4167ft 128kts
13-Jun-17 13:02 33.473664 -117.904632 260 4167ft 129kts
13-Jun-17 13:03 33.467991 -117.947380 260 4169ft 129kts
13-Jun-17 13:04 33.462343 -117.989792 260 4168ft 128kts
13-Jun-17 13:05 33.456977 -118.031851 272 4160ft 128kts
13-Jun-17 13:06 33.474198 -118.069249 300 4170ft 130kts
13-Jun-17 13:07 33.484985 -118.109799 282 4166ft 128kts
13-Jun-17 13:08 33.492162 -118.152108 281 4167ft 129kts
13-Jun-17 13:09 33.498843 -118.191766 281 4165ft 113kts
13-Jun-17 13:10 33.499891 -118.229364 267 4216ft 116kts
13-Jun-17 13:11 33.495753 -118.266421 251 4166ft 109kts
13-Jun-17 13:12 33.484098 -118.300272 243 4167ft 110kts
13-Jun-17 13:13 33.469611 -118.332014 238 4167ft 108kts
13-Jun-17 13:14 33.452072 -118.362587 226 3950ft 122kts
13-Jun-17 13:15 33.426794 -118.394698 232 2847ft 138kts
13-Jun-17 13:16 33.409799 -118.432367 248 1997ft 126kts
13-Jun-17 13:17 33.395072 -118.444928 121 2326ft 76kts
13-Jun-17 13:18 33.401294 -118.422001 54 1767ft 70kts
13-Jun-17 13:19 33.407079 -118.411553 236 1606ft 11kts
13-Jun-17 13:20 33.404109 -118.415032 191 1606ft 12kts
13-Jun-17 13:21 33.403593 -118.415724 318 1606ft 0kts
13-Jun-17 13:22 33.403593 -118.415724 318 1606ft 0kts
13-Jun-17 13:23 33.403593 -118.415724 318 1606ft 0kts

Navigation Log

Ident Type
Flight plan parsing failed, navigation log unavailable